createdAt,value
2023-03-15T00:01:24.208Z,100179.72
2023-03-15T00:03:51.632Z,100177.13
2023-03-15T00:06:19.008Z,100177.94
2023-03-15T00:08:47.830Z,100182.31
2023-03-15T00:11:19.079Z,100184.97
2023-03-15T00:13:46.998Z,100194.41
2023-03-15T00:16:18.346Z,100198.78
2023-03-15T00:18:47.481Z,100194.44
2023-03-15T00:21:15.067Z,100206.56
2023-03-15T00:23:42.575Z,100218.69
2023-03-15T00:26:09.813Z,100224.75
2023-03-15T00:28:37.099Z,100232.56
2023-03-15T00:31:05.560Z,100235.19
2023-03-15T00:33:35.042Z,100242.09
2023-03-15T00:36:06.883Z,100245.53
2023-03-15T00:38:35.390Z,100249.03
2023-03-15T00:41:07.253Z,100249.06
2023-03-15T00:43:34.805Z,100256.00
2023-03-15T00:46:02.537Z,100256.88
2023-03-15T00:48:29.812Z,100262.91
2023-03-15T00:51:13.368Z,100266.38
2023-03-15T00:53:42.936Z,100258.59
2023-03-15T00:56:13.002Z,100268.97
2023-03-15T00:58:40.685Z,100264.66
2023-03-15T01:01:17.595Z,100266.38
2023-03-15T01:03:45.358Z,100273.25
2023-03-15T01:06:15.878Z,100268.03
2023-03-15T01:08:43.760Z,100282.69
2023-03-15T01:11:19.927Z,100283.63
2023-03-15T01:13:47.287Z,100277.63
2023-03-15T01:16:15.419Z,100282.78
2023-03-15T01:18:42.929Z,100291.44
2023-03-15T01:21:12.165Z,100290.59
2023-03-15T01:23:39.730Z,100290.63
2023-03-15T01:26:10.434Z,100294.94
2023-03-15T01:28:37.740Z,100311.44
2023-03-15T01:31:05.108Z,100311.44
2023-03-15T01:33:32.700Z,100308.84
2023-03-15T01:36:05.392Z,100306.28
2023-03-15T01:38:33.621Z,100315.78
2023-03-15T01:41:01.026Z,100313.25
2023-03-15T01:43:31.953Z,100314.94
2023-03-15T01:46:23.666Z,100315.84
2023-03-15T01:49:01.648Z,100311.56
2023-03-15T01:51:50.584Z,100315.91
2023-03-15T01:54:30.217Z,100319.38
2023-03-15T01:57:02.251Z,100320.25
2023-03-15T01:59:33.411Z,100318.50
2023-03-15T02:02:01.090Z,100321.94
2023-03-15T02:04:34.237Z,100323.69
2023-03-15T02:07:02.898Z,100319.41
2023-03-15T02:09:47.807Z,100329.78
2023-03-15T02:12:15.061Z,100330.63
2023-03-15T02:14:44.023Z,100327.16
2023-03-15T02:17:11.768Z,100329.75
2023-03-15T02:20:07.137Z,100334.06
2023-03-15T02:22:53.794Z,100335.81
2023-03-15T02:25:45.953Z,100337.56
2023-03-15T02:28:15.862Z,100342.72
2023-03-15T02:30:43.706Z,100339.28
2023-03-15T02:33:33.139Z,100351.38
2023-03-15T02:36:19.489Z,100347.03
2023-03-15T02:38:46.843Z,100350.53
2023-03-15T02:41:24.851Z,100357.41
2023-03-15T02:43:54.698Z,100365.22
2023-03-15T02:46:22.578Z,100366.94
2023-03-15T02:48:51.745Z,100369.50
2023-03-15T02:51:24.242Z,100367.78
2023-03-15T02:53:51.565Z,100379.00
2023-03-15T02:56:18.866Z,100379.84
2023-03-15T02:58:46.498Z,100379.00
2023-03-15T03:01:14.679Z,100389.38
2023-03-15T03:03:42.763Z,100385.06
2023-03-15T03:06:11.040Z,100392.81
2023-03-15T03:08:38.437Z,100394.53
2023-03-15T03:11:06.032Z,100392.84
2023-03-15T03:13:33.460Z,100396.31
2023-03-15T03:16:00.652Z,100398.91
2023-03-15T03:18:35.785Z,100402.34
2023-03-15T03:21:04.994Z,100404.06
2023-03-15T03:23:33.966Z,100404.06
2023-03-15T03:26:01.696Z,100408.38
2023-03-15T03:28:30.985Z,100410.97
2023-03-15T03:30:59.186Z,100410.09
2023-03-15T03:33:26.534Z,100411.84
2023-03-15T03:35:54.456Z,100415.31
2023-03-15T03:38:21.808Z,100423.09
2023-03-15T03:40:49.019Z,100423.09
2023-03-15T03:43:16.273Z,100429.13
2023-03-15T03:45:43.633Z,100438.63
2023-03-15T03:48:10.899Z,100443.81
2023-03-15T03:50:38.090Z,100447.28
2023-03-15T03:53:05.408Z,100448.09
2023-03-15T03:55:34.294Z,100446.41
2023-03-15T03:58:01.557Z,100450.72
2023-03-15T04:00:28.782Z,100451.59
2023-03-15T04:02:56.082Z,100451.59
2023-03-15T04:05:23.673Z,100461.94
2023-03-15T04:07:51.103Z,100457.59
2023-03-15T04:10:18.323Z,100455.03
2023-03-15T04:12:45.708Z,100454.19
2023-03-15T04:15:13.349Z,100467.13
2023-03-15T04:17:40.626Z,100466.25
2023-03-15T04:20:11.793Z,100469.72
2023-03-15T04:22:39.993Z,100469.72
2023-03-15T04:25:07.726Z,100473.16
2023-03-15T04:27:34.977Z,100479.19
2023-03-15T04:30:05.423Z,100476.59
2023-03-15T04:32:32.991Z,100486.97
2023-03-15T04:35:02.428Z,100488.69
2023-03-15T04:37:32.467Z,100491.28
2023-03-15T04:39:59.768Z,100491.28
2023-03-15T04:42:27.129Z,100494.75
2023-03-15T04:44:54.479Z,100495.59
2023-03-15T04:47:22.736Z,100501.63
2023-03-15T04:49:49.961Z,100510.28
2023-03-15T04:52:17.237Z,100505.09
2023-03-15T04:54:44.738Z,100510.25
2023-03-15T04:57:12.171Z,100506.81
2023-03-15T04:59:39.479Z,100517.19
2023-03-15T05:02:06.920Z,100526.66
2023-03-15T05:04:34.254Z,100534.44
2023-03-15T05:07:01.597Z,100540.50
2023-03-15T05:09:31.910Z,100550.03
2023-03-15T05:11:59.329Z,100546.56
2023-03-15T05:14:26.651Z,100541.38
2023-03-15T05:16:55.942Z,100543.97
2023-03-15T05:19:23.398Z,100554.34
2023-03-15T05:21:50.943Z,100557.81
2023-03-15T05:24:18.211Z,100562.13
2023-03-15T05:26:46.668Z,100555.22
2023-03-15T05:29:14.549Z,100558.69
2023-03-15T05:31:42.065Z,100561.28
2023-03-15T05:34:09.350Z,100568.22
2023-03-15T05:36:36.559Z,100573.38
2023-03-15T05:39:03.839Z,100576.00
2023-03-15T05:41:31.545Z,100586.34
2023-03-15T05:43:59.178Z,100582.00
2023-03-15T05:46:26.780Z,100581.97
2023-03-15T05:48:54.373Z,100594.88
2023-03-15T05:51:21.598Z,100599.22
2023-03-15T05:53:49.018Z,100610.47
2023-03-15T05:56:16.400Z,100618.25
2023-03-15T05:58:43.626Z,100637.31
2023-03-15T06:01:10.865Z,100627.75
2023-03-15T06:03:38.061Z,100627.78
2023-03-15T06:06:05.606Z,100627.78
2023-03-15T06:08:32.839Z,100632.06
2023-03-15T06:11:00.048Z,100632.03
2023-03-15T06:13:27.300Z,100632.03
2023-03-15T06:15:54.611Z,100638.09
2023-03-15T06:18:21.879Z,100635.50
2023-03-15T06:20:49.170Z,100643.28
2023-03-15T06:23:16.388Z,100653.66
2023-03-15T06:25:43.664Z,100649.28
2023-03-15T06:28:11.229Z,100654.50
2023-03-15T06:30:38.951Z,100652.75
2023-03-15T06:33:06.453Z,100660.47
2023-03-15T06:35:33.804Z,100664.75
2023-03-15T06:38:01.242Z,100674.31
2023-03-15T06:40:28.528Z,100671.69
2023-03-15T06:42:55.725Z,100673.34
2023-03-15T06:45:22.950Z,100675.97
2023-03-15T06:47:50.312Z,100680.22
2023-03-15T06:50:17.784Z,100690.59
2023-03-15T06:52:45.173Z,100692.25
2023-03-15T06:55:17.456Z,100689.59
2023-03-15T06:57:49.058Z,100695.59
2023-03-15T07:00:17.299Z,100693.78
2023-03-15T07:02:44.604Z,100699.78
2023-03-15T07:05:12.045Z,100704.00
2023-03-15T07:07:39.394Z,100704.66
2023-03-15T07:10:07.297Z,100709.78
2023-03-15T07:12:37.788Z,100711.53
2023-03-15T07:15:09.386Z,100715.13
2023-03-15T07:17:36.821Z,100719.53
2023-03-15T07:20:06.364Z,100723.03
2023-03-15T07:22:34.369Z,100722.16
2023-03-15T07:25:01.745Z,100730.78
2023-03-15T07:27:30.220Z,100728.34
2023-03-15T07:30:00.120Z,100727.53
2023-03-15T07:32:27.907Z,100728.41
2023-03-15T07:34:58.558Z,100721.38
2023-03-15T07:37:26.503Z,100725.69
2023-03-15T07:39:53.874Z,100735.19
2023-03-15T07:42:21.226Z,100738.66
2023-03-15T07:44:49.406Z,100742.88
2023-03-15T07:47:17.614Z,100749.81
2023-03-15T07:49:45.289Z,100741.09
2023-03-15T07:52:12.767Z,100746.22
2023-03-15T07:54:42.770Z,100747.75
2023-03-15T07:57:12.272Z,100753.97
2023-03-15T07:59:39.781Z,100756.50
2023-03-15T08:02:07.469Z,100753.75
2023-03-15T08:04:37.053Z,100755.41
2023-03-15T08:07:04.503Z,100756.41
2023-03-15T08:09:34.925Z,100756.19
2023-03-15T08:12:03.834Z,100761.94
2023-03-15T08:14:35.333Z,100757.34
2023-03-15T08:17:03.947Z,100761.75
2023-03-15T08:19:37.678Z,100763.31
2023-03-15T08:22:05.654Z,100777.06
2023-03-15T08:24:33.005Z,100776.28
2023-03-15T08:27:00.702Z,100779.00
2023-03-15T08:29:28.317Z,100787.81
2023-03-15T08:31:55.690Z,100793.19
2023-03-15T08:34:23.003Z,100793.47
2023-03-15T08:36:51.265Z,100792.59
2023-03-15T08:39:18.516Z,100794.97
2023-03-15T08:41:47.402Z,100804.28
2023-03-15T08:44:14.790Z,100803.13
2023-03-15T08:46:42.367Z,100808.84
2023-03-15T08:49:09.872Z,100812.88
2023-03-15T08:51:37.175Z,100811.09
2023-03-15T08:54:05.290Z,100813.69
2023-03-15T08:56:32.673Z,100827.06
2023-03-15T08:59:00.376Z,100824.41
2023-03-15T09:01:30.245Z,100835.53
2023-03-15T09:03:57.650Z,100835.53
2023-03-15T09:06:24.926Z,100830.53
2023-03-15T09:08:53.871Z,100831.63
2023-03-15T09:11:21.818Z,100839.72
2023-03-15T09:13:49.129Z,100837.09
2023-03-15T09:16:17.384Z,100844.25
2023-03-15T09:18:45.386Z,100849.34
2023-03-15T09:21:12.658Z,100852.84
2023-03-15T09:23:39.949Z,100858.75
2023-03-15T09:26:07.266Z,100857.38
2023-03-15T09:28:34.859Z,100864.50
2023-03-15T09:31:06.899Z,100857.25
2023-03-15T09:33:34.697Z,100863.22
2023-03-15T09:36:04.720Z,100868.50
2023-03-15T09:38:32.192Z,100881.13
2023-03-15T09:41:01.740Z,100880.19
2023-03-15T09:44:04.495Z,100886.22
2023-03-15T09:46:36.107Z,100898.94
2023-03-15T09:49:14.542Z,100893.47
2023-03-15T09:51:54.392Z,100899.72
2023-03-15T09:54:42.095Z,100903.47
2023-03-15T09:57:36.294Z,100896.75
2023-03-15T10:00:07.297Z,100900.69
2023-03-15T10:02:34.912Z,100898.56
2023-03-15T10:05:18.441Z,100898.28
2023-03-15T10:07:47.559Z,100912.28
2023-03-15T10:10:22.059Z,100910.63
2023-03-15T10:13:22.273Z,100911.84
2023-03-15T10:16:24.289Z,100914.91
2023-03-15T10:19:19.685Z,100920.75
2023-03-15T10:21:58.530Z,100920.22
2023-03-15T10:24:34.934Z,100923.25
2023-03-15T10:27:14.830Z,100930.06
2023-03-15T10:29:44.376Z,100932.38
2023-03-15T10:32:18.309Z,100925.81
2023-03-15T10:34:49.866Z,100919.59
2023-03-15T10:37:18.020Z,100922.41
2023-03-15T10:39:48.792Z,100920.25
2023-03-15T10:42:32.091Z,100928.19
2023-03-15T10:45:25.357Z,100934.38
2023-03-15T10:48:00.395Z,100928.97
2023-03-15T10:50:33.083Z,100935.88
2023-03-15T10:53:02.900Z,100936.16
2023-03-15T10:55:37.964Z,100937.13
2023-03-15T10:58:31.434Z,100928.56
2023-03-15T11:01:07.749Z,100938.91
2023-03-15T11:03:38.803Z,100930.53
2023-03-15T11:06:26.092Z,100931.53
2023-03-15T11:09:11.404Z,100932.16
2023-03-15T11:12:03.627Z,100932.22
2023-03-15T11:14:35.790Z,100929.53
2023-03-15T11:17:05.032Z,100929.31
2023-03-15T11:19:33.834Z,100928.69
2023-03-15T11:22:03.473Z,100928.78
2023-03-15T11:24:34.239Z,100924.81
2023-03-15T11:27:04.620Z,100933.16
2023-03-15T11:29:36.615Z,100941.84
2023-03-15T11:32:18.978Z,100935.28
2023-03-15T11:35:08.390Z,100933.16
2023-03-15T11:37:52.984Z,100933.53
2023-03-15T11:40:29.376Z,100936.91
2023-03-15T11:43:08.687Z,100935.31
2023-03-15T11:45:59.899Z,100941.59
2023-03-15T11:49:24.155Z,100935.38
2023-03-15T11:51:51.796Z,100950.97
2023-03-15T11:54:23.336Z,100951.47
2023-03-15T11:57:04.018Z,100956.75
2023-03-15T11:59:38.016Z,100954.09
2023-03-15T12:02:18.102Z,100954.44
2023-03-15T12:04:49.663Z,100951.56
2023-03-15T12:07:21.060Z,100949.09
2023-03-15T12:10:03.565Z,100960.44
2023-03-15T12:12:31.150Z,100949.78
2023-03-15T12:15:21.261Z,100946.25
2023-03-15T12:18:01.311Z,100958.47
2023-03-15T12:20:55.994Z,100955.25
2023-03-15T12:23:45.233Z,100946.91
2023-03-15T12:26:22.564Z,100949.41
2023-03-15T12:29:07.490Z,100951.94
2023-03-15T12:32:05.081Z,100956.34
2023-03-15T12:34:48.964Z,100958.31
2023-03-15T12:37:32.498Z,100963.78
2023-03-15T12:40:16.480Z,100958.72
2023-03-15T12:42:47.515Z,100957.44
2023-03-15T12:45:29.661Z,100959.84
2023-03-15T12:48:04.686Z,100959.09
2023-03-15T12:50:44.062Z,100962.50
2023-03-15T12:53:29.065Z,100964.13
2023-03-15T12:56:08.036Z,100970.16
2023-03-15T12:58:37.628Z,100962.50
2023-03-15T13:01:06.954Z,100957.28
2023-03-15T13:03:35.191Z,100961.72
2023-03-15T13:06:11.574Z,100965.19
2023-03-15T13:08:47.199Z,100967.09
2023-03-15T13:11:55.759Z,100963.28
2023-03-15T13:14:51.179Z,100966.84
2023-03-15T13:17:37.344Z,100963.63
2023-03-15T13:20:27.436Z,100960.75
2023-03-15T13:23:18.211Z,100965.19
2023-03-15T13:25:51.966Z,100968.41
2023-03-15T13:28:37.495Z,100975.16
2023-03-15T13:31:26.257Z,100978.34
2023-03-15T13:33:58.961Z,100989.25
2023-03-15T13:36:47.650Z,100992.69
2023-03-15T13:39:20.601Z,100993.38
2023-03-15T13:41:49.736Z,100986.59
2023-03-15T13:44:20.777Z,100996.97
2023-03-15T13:46:50.054Z,101004.94
2023-03-15T13:49:17.816Z,101009.78
2023-03-15T13:51:48.104Z,101007.44
2023-03-15T13:54:41.813Z,101013.75
2023-03-15T13:57:13.703Z,101015.50
2023-03-15T14:00:02.304Z,101012.41
2023-03-15T14:02:46.124Z,101013.38
2023-03-15T14:05:19.653Z,101013.38
2023-03-15T14:07:49.448Z,101013.38
2023-03-15T14:10:35.693Z,101019.50
2023-03-15T14:13:24.741Z,101015.22
2023-03-15T14:16:05.931Z,101010.91
2023-03-15T14:18:34.935Z,101002.22
2023-03-15T14:21:21.206Z,101011.69
2023-03-15T14:23:49.701Z,101010.03
2023-03-15T14:26:24.564Z,101009.94
2023-03-15T14:29:02.331Z,101009.22
2023-03-15T14:31:44.655Z,101003.09
2023-03-15T14:34:24.830Z,101002.19
2023-03-15T14:36:54.337Z,101002.84
2023-03-15T14:39:32.734Z,100998.53
2023-03-15T14:42:01.370Z,101004.66
2023-03-15T14:44:30.076Z,101007.66
2023-03-15T14:46:57.946Z,100998.94
2023-03-15T14:49:32.485Z,101001.38
2023-03-15T14:52:04.709Z,101012.50
2023-03-15T14:54:32.752Z,100996.66
2023-03-15T14:57:04.840Z,101009.19
2023-03-15T14:59:32.237Z,101017.53
2023-03-15T15:02:01.196Z,101001.63
2023-03-15T15:04:34.310Z,101022.66
2023-03-15T15:07:03.637Z,101031.19
2023-03-15T15:09:31.822Z,101034.06
2023-03-15T15:11:59.242Z,101023.56
2023-03-15T15:14:27.157Z,101019.34
2023-03-15T15:16:57.365Z,101025.66
2023-03-15T15:19:25.174Z,101026.88
2023-03-15T15:21:54.405Z,101033.97
2023-03-15T15:24:24.504Z,101043.69
2023-03-15T15:26:52.072Z,101049.97
2023-03-15T15:29:22.827Z,101051.06
2023-03-15T15:31:52.669Z,101058.94
2023-03-15T15:34:23.255Z,101049.56
2023-03-15T15:36:54.038Z,101058.31
2023-03-15T15:39:27.731Z,101065.25
2023-03-15T15:42:00.044Z,101053.97
2023-03-15T15:44:28.802Z,101067.84
2023-03-15T15:47:03.189Z,101064.44
2023-03-15T15:49:31.001Z,101082.69
2023-03-15T15:51:58.692Z,101073.19
2023-03-15T15:54:31.556Z,101074.13
2023-03-15T15:57:02.559Z,101090.59
2023-03-15T15:59:34.514Z,101091.34
2023-03-15T16:02:02.878Z,101102.66
2023-03-15T16:04:31.357Z,101114.97
2023-03-15T16:07:02.976Z,101111.47
2023-03-15T16:09:36.140Z,101109.53
2023-03-15T16:12:06.075Z,101116.81
2023-03-15T16:14:34.728Z,101120.03
2023-03-15T16:17:04.201Z,101121.16
2023-03-15T16:19:33.265Z,101114.22
2023-03-15T16:22:02.079Z,101132.81
2023-03-15T16:24:36.390Z,101127.88
2023-03-15T16:27:12.558Z,101126.19
2023-03-15T16:29:50.450Z,101123.69
2023-03-15T16:32:36.870Z,101138.63
2023-03-15T16:35:16.616Z,101133.53
2023-03-15T16:37:48.429Z,101143.22
2023-03-15T16:40:21.547Z,101148.53
2023-03-15T16:42:50.007Z,101153.81
2023-03-15T16:45:18.009Z,101159.06
2023-03-15T16:47:45.966Z,101153.91
2023-03-15T16:50:13.956Z,101161.75
2023-03-15T16:52:43.399Z,101167.97
2023-03-15T16:55:15.842Z,101176.66
2023-03-15T16:57:43.487Z,101178.41
2023-03-15T17:00:18.636Z,101187.19
2023-03-15T17:02:49.281Z,101192.38
2023-03-15T17:05:23.317Z,101195.84
2023-03-15T17:07:52.727Z,101190.66
2023-03-15T17:10:27.753Z,101194.16
2023-03-15T17:12:55.983Z,101203.75
2023-03-15T17:15:27.937Z,101204.66
2023-03-15T17:18:00.767Z,101208.16
2023-03-15T17:20:29.414Z,101208.13
2023-03-15T17:23:04.161Z,101221.16
2023-03-15T17:25:32.801Z,101216.81
2023-03-15T17:28:03.051Z,101228.09
2023-03-15T17:30:35.391Z,101235.09
2023-03-15T17:33:05.593Z,101238.56
2023-03-15T17:35:36.673Z,101238.56
2023-03-15T17:38:06.279Z,101245.53
2023-03-15T17:40:35.646Z,101244.72
2023-03-15T17:43:03.386Z,101248.22
2023-03-15T17:45:33.100Z,101248.22
2023-03-15T17:48:01.129Z,101249.97
2023-03-15T17:50:31.045Z,101253.44
2023-03-15T17:53:04.225Z,101250.81
2023-03-15T17:55:35.916Z,101261.25
2023-03-15T17:58:06.123Z,101267.34
2023-03-15T18:00:33.508Z,101265.59
2023-03-15T18:03:00.973Z,101263.84
2023-03-15T18:05:30.333Z,101272.56
2023-03-15T18:07:59.372Z,101265.63
2023-03-15T18:10:35.376Z,101282.09
2023-03-15T18:13:03.484Z,101286.41
2023-03-15T18:15:32.744Z,101288.16
2023-03-15T18:18:01.076Z,101285.56
2023-03-15T18:20:29.836Z,101288.19
2023-03-15T18:22:57.395Z,101293.34
2023-03-15T18:25:31.753Z,101293.34
2023-03-15T18:28:04.702Z,101299.41
2023-03-15T18:30:35.426Z,101302.03
2023-03-15T18:33:04.351Z,101302.00
2023-03-15T18:35:37.170Z,101299.41
2023-03-15T18:38:05.337Z,101301.13
2023-03-15T18:40:34.212Z,101317.59
2023-03-15T18:43:04.792Z,101315.88
2023-03-15T18:45:36.667Z,101314.97
2023-03-15T18:48:04.860Z,101324.53
2023-03-15T18:50:32.550Z,101321.91
2023-03-15T18:53:00.298Z,101325.34
2023-03-15T18:55:27.820Z,101320.13
2023-03-15T18:57:56.007Z,101327.06
2023-03-15T19:00:29.485Z,101325.34
2023-03-15T19:02:59.948Z,101325.31
2023-03-15T19:05:28.328Z,101329.69
2023-03-15T19:07:56.009Z,101330.50
2023-03-15T19:10:24.529Z,101321.81
2023-03-15T19:12:54.801Z,101333.09
2023-03-15T19:15:24.561Z,101340.00
2023-03-15T19:17:54.864Z,101340.81
2023-03-15T19:20:24.804Z,101333.00
2023-03-15T19:22:53.901Z,101342.53
2023-03-15T19:25:21.901Z,101338.19
2023-03-15T19:27:51.075Z,101338.16
2023-03-15T19:30:22.589Z,101342.50
2023-03-15T19:32:50.944Z,101343.34
2023-03-15T19:35:19.408Z,101351.13
2023-03-15T19:37:52.619Z,101359.78
2023-03-15T19:40:20.660Z,101362.41
2023-03-15T19:42:49.577Z,101359.75
2023-03-15T19:45:20.059Z,101364.91
2023-03-15T19:47:49.016Z,101358.84
2023-03-15T19:50:16.712Z,101358.88
2023-03-15T19:52:52.898Z,101367.53
2023-03-15T19:55:22.902Z,101365.72
2023-03-15T19:57:56.279Z,101370.91
2023-03-15T20:03:08.454Z,101373.50
2023-03-15T20:05:40.027Z,101380.31
2023-03-15T20:08:10.696Z,101376.88
2023-03-15T20:10:38.083Z,101380.34
2023-03-15T20:13:07.522Z,101385.50
2023-03-15T20:15:41.551Z,101382.06
2023-03-15T20:18:14.228Z,101389.88
2023-03-15T20:20:41.578Z,101390.66
2023-03-15T20:23:09.496Z,101387.19
2023-03-15T20:25:36.884Z,101392.38
2023-03-15T20:28:08.061Z,101395.84
2023-03-15T20:30:36.685Z,101392.38
2023-03-15T20:33:04.127Z,101405.38
2023-03-15T20:35:34.190Z,101397.53
2023-03-15T20:38:07.168Z,101401.78
2023-03-15T20:40:40.844Z,101406.09
2023-03-15T20:43:09.446Z,101414.69
2023-03-15T20:45:38.172Z,101419.84
2023-03-15T20:48:08.529Z,101418.97
2023-03-15T20:50:35.964Z,101425.91
2023-03-15T20:53:05.846Z,62173.94
2023-03-15T20:55:34.489Z,62173.94
2023-03-15T20:58:05.016Z,62173.94
2023-03-15T21:00:32.836Z,62173.94
2023-03-15T21:03:02.193Z,62173.94
2023-03-15T21:05:31.295Z,62173.94
2023-03-15T21:07:58.698Z,62173.94
2023-03-15T21:10:28.385Z,62173.94
2023-03-15T21:12:57.062Z,62173.94
2023-03-15T21:15:26.245Z,62173.94
2023-03-15T21:17:53.730Z,62173.94
2023-03-15T21:20:21.487Z,62173.94
2023-03-15T21:22:49.080Z,62173.94
2023-03-15T21:25:17.126Z,62173.94
2023-03-15T21:27:44.973Z,62173.94
2023-03-15T21:30:14.116Z,62173.94
2023-03-15T21:32:43.373Z,62173.94
2023-03-15T21:35:10.908Z,62173.94
2023-03-15T21:37:41.269Z,62173.94
2023-03-15T21:40:09.533Z,62173.94
2023-03-15T21:42:37.287Z,62173.94
2023-03-15T21:45:04.789Z,62173.94
2023-03-15T21:47:32.139Z,62173.94
2023-03-15T21:49:59.459Z,62173.94
2023-03-15T21:52:27.036Z,62173.94
2023-03-15T21:54:54.480Z,62173.94
2023-03-15T21:57:22.518Z,62173.94
2023-03-15T21:59:50.811Z,62173.94
2023-03-15T22:02:18.450Z,62173.94
2023-03-15T22:04:46.982Z,62173.94
2023-03-15T22:07:14.418Z,62173.94
2023-03-15T22:09:42.957Z,62173.94
2023-03-15T22:12:13.521Z,62173.94
2023-03-15T22:14:43.578Z,62173.94
2023-03-15T22:17:13.342Z,62173.94
2023-03-15T22:19:41.205Z,62173.94
2023-03-15T22:22:09.007Z,62173.94
2023-03-15T22:24:37.848Z,62173.94
2023-03-15T22:27:05.207Z,62173.94
2023-03-15T22:29:32.616Z,62173.94
2023-03-15T22:31:59.953Z,62173.94
2023-03-15T22:34:27.257Z,62173.94
2023-03-15T22:36:54.866Z,62173.94
2023-03-15T22:39:23.454Z,62173.94
2023-03-15T22:41:50.971Z,62173.94
2023-03-15T22:44:18.359Z,62173.94
2023-03-15T22:46:45.857Z,62173.94
2023-03-15T22:49:13.329Z,62173.94
2023-03-15T22:51:40.871Z,62173.94
2023-03-15T22:54:08.872Z,62173.94
2023-03-15T22:56:36.401Z,62173.94
2023-03-15T22:59:03.844Z,62173.94
2023-03-15T23:01:31.309Z,62173.94
2023-03-15T23:03:58.928Z,62173.94
2023-03-15T23:06:26.494Z,62173.94
2023-03-15T23:08:53.794Z,62173.94
2023-03-15T23:11:22.076Z,62173.94
2023-03-15T23:13:49.382Z,62173.94
2023-03-15T23:16:17.362Z,62173.94
2023-03-15T23:18:44.966Z,62173.94
2023-03-15T23:21:14.751Z,62173.94
2023-03-15T23:23:45.230Z,62173.94
2023-03-15T23:26:13.216Z,62173.94
2023-03-15T23:28:40.551Z,62173.94
2023-03-15T23:31:08.278Z,62173.94
2023-03-15T23:33:35.863Z,62173.94
2023-03-15T23:36:04.391Z,62173.94
2023-03-15T23:38:34.544Z,62173.94
2023-03-15T23:41:02.810Z,62173.94
2023-03-15T23:43:30.083Z,62173.94
2023-03-15T23:45:59.272Z,62173.94
2023-03-15T23:48:27.427Z,62173.94
2023-03-15T23:50:56.087Z,62173.94
2023-03-15T23:53:25.664Z,62173.94
2023-03-15T23:55:53.222Z,62173.94
2023-03-15T23:58:20.797Z,62173.94
